Serene Sea — D5HI4 — position and weather

sailwx.info

Track history (hours):
 
Tides and Currents Weather Stations Pressure Air Temp Water Temp Dewpoint Dewpoint Depression Visibility Wind Speed Wind Dir Waves Ship Positions

Serene Sea

Last reported at 2017-Dec-16 13:23 UTC. Time now 2017-Dec-17 12:07 UTC.
Position N 01°15' E 104°05'.

Length 229 m; draft 8 m.

Type: Tanker. MMSI: 636016696.

Date/timePositionNaut miles runAvg speedWind from/ knotsBaromVisibWave heightAir tempDewpointWater temp
2017-Dec-16 13:23N 01°15' E 104°05'411.1
2017-Dec-16 12:59N 01°14' E 104°01'4 7.8
2017-Dec-16 12:27N 01°14' E 103°57'2 4.9
2017-Dec-16 12:00N 01°15' E 103°55'0 0.2
2017-Dec-16 10:48N 01°15' E 103°55'0 0.2
2017-Dec-16 10:24N 01°15' E 103°55'0 0.1
2017-Dec-16 09:33N 01°15' E 103°55'0 0.0
2017-Dec-16 09:30N 01°15' E 103°55'0 0.0
2017-Dec-16 09:00N 01°15' E 103°55'0 0.0
2017-Dec-16 08:06N 01°15' E 103°55'0 0.0
2017-Dec-16 07:42N 01°15' E 103°55'0 0.0
2017-Dec-16 07:30N 01°15' E 103°55'0 0.0
2017-Dec-16 06:57N 01°15' E 103°55'0 0.0
2017-Dec-16 06:15N 01°15' E 103°55'0 0.1
2017-Dec-16 05:54N 01°15' E 103°55'0 0.0
2017-Dec-16 05:30N 01°15' E 103°55'0 0.0
2017-Dec-16 04:45N 01°15' E 103°55'0 0.1
2017-Dec-16 02:42N 01°15' E 103°55'0 0.0
2017-Dec-16 02:30N 01°15' E 103°55'0 0.0
2017-Dec-16 01:45N 01°15' E 103°55'0 0.2
2017-Dec-16 01:30N 01°15' E 103°55'0 0.0
2017-Dec-16 00:09N 01°15' E 103°55'0 0.0
2017-Dec-16 00:00N 01°15' E 103°55'0 0.1
2017-Dec-15 22:45N 01°15' E 103°55'0 0.0
2017-Dec-15 22:30N 01°15' E 103°55'0 0.0
2017-Dec-15 22:00N 01°15' E 103°55'0 0.0
2017-Dec-15 21:21N 01°15' E 103°55'0 0.0
2017-Dec-15 20:57N 01°15' E 103°55'0 0.0
2017-Dec-15 20:24N 01°15' E 103°55'0 0.0
2017-Dec-15 19:57N 01°15' E 103°55'0 0.0
2017-Dec-15 19:30N 01°15' E 103°55'0 0.0
2017-Dec-15 18:39N 01°15' E 103°55'0 0.1
2017-Dec-15 18:30N 01°15' E 103°55'0 0.0
2017-Dec-15 17:57N 01°15' E 103°55'0 0.0
2017-Dec-15 17:30N 01°15' E 103°55'0 0.0
2017-Dec-15 17:00N 01°15' E 103°55'0 0.0
2017-Dec-15 16:18N 01°15' E 103°55'0 0.0
2017-Dec-15 15:54N 01°15' E 103°55'0 0.0
2017-Dec-15 15:30N 01°15' E 103°55'0 0.1
2017-Dec-15 15:00N 01°15' E 103°55'1 1.4
2017-Dec-15 14:30N 01°14' E 103°55'3 5.9
2017-Dec-15 13:59N 01°16' E 103°58'2 3.5
2017-Dec-15 13:29N 01°16' E 103°60'3 6.3
2017-Dec-15 12:59N 01°16' E 104°03'3 6.8
2017-Dec-15 12:30N 01°17' E 104°06'5 7.0
2017-Dec-15 11:51N 01°17' E 104°10'4 8.7
2017-Dec-15 11:24N 01°18' E 104°14'  
2017-Dec-06 21:09N 01°14' E 104°05'211.5
2017-Dec-06 20:56N 01°14' E 104°02'  
Track history (hours):
 
Tides and Currents Weather Stations Pressure Air Temp Water Temp Dewpoint Dewpoint Depression Visibility Wind Speed Wind Dir Waves Ship Positions

Serene Sea

Last reported at 2017-Dec-16 13:23 UTC. Time now 2017-Dec-17 12:07 UTC.
Position N 01°15' E 104°05'.

Length 229 m; draft 8 m.

Type: Tanker. MMSI: 636016696.

Date/timePositionNaut miles runAvg speedWind from/ knotsBaromVisibWave heightAir tempDewpointWater temp
2017-Dec-16 13:23N 01°15' E 104°05'411.1
2017-Dec-16 12:59N 01°14' E 104°01'4 7.8
2017-Dec-16 12:27N 01°14' E 103°57'2 4.9
2017-Dec-16 12:00N 01°15' E 103°55'0 0.2
2017-Dec-16 10:48N 01°15' E 103°55'0 0.2
2017-Dec-16 10:24N 01°15' E 103°55'0 0.1
2017-Dec-16 09:33N 01°15' E 103°55'0 0.0
2017-Dec-16 09:30N 01°15' E 103°55'0 0.0
2017-Dec-16 09:00N 01°15' E 103°55'0 0.0
2017-Dec-16 08:06N 01°15' E 103°55'0 0.0
2017-Dec-16 07:42N 01°15' E 103°55'0 0.0
2017-Dec-16 07:30N 01°15' E 103°55'0 0.0
2017-Dec-16 06:57N 01°15' E 103°55'0 0.0
2017-Dec-16 06:15N 01°15' E 103°55'0 0.1
2017-Dec-16 05:54N 01°15' E 103°55'0 0.0
2017-Dec-16 05:30N 01°15' E 103°55'0 0.0
2017-Dec-16 04:45N 01°15' E 103°55'0 0.1
2017-Dec-16 02:42N 01°15' E 103°55'0 0.0
2017-Dec-16 02:30N 01°15' E 103°55'0 0.0
2017-Dec-16 01:45N 01°15' E 103°55'0 0.2
2017-Dec-16 01:30N 01°15' E 103°55'0 0.0
2017-Dec-16 00:09N 01°15' E 103°55'0 0.0
2017-Dec-16 00:00N 01°15' E 103°55'0 0.1
2017-Dec-15 22:45N 01°15' E 103°55'0 0.0
2017-Dec-15 22:30N 01°15' E 103°55'0 0.0
2017-Dec-15 22:00N 01°15' E 103°55'0 0.0
2017-Dec-15 21:21N 01°15' E 103°55'0 0.0
2017-Dec-15 20:57N 01°15' E 103°55'0 0.0
2017-Dec-15 20:24N 01°15' E 103°55'0 0.0
2017-Dec-15 19:57N 01°15' E 103°55'0 0.0
2017-Dec-15 19:30N 01°15' E 103°55'0 0.0
2017-Dec-15 18:39N 01°15' E 103°55'0 0.1
2017-Dec-15 18:30N 01°15' E 103°55'0 0.0
2017-Dec-15 17:57N 01°15' E 103°55'0 0.0
2017-Dec-15 17:30N 01°15' E 103°55'0 0.0
2017-Dec-15 17:00N 01°15' E 103°55'0 0.0
2017-Dec-15 16:18N 01°15' E 103°55'0 0.0
2017-Dec-15 15:54N 01°15' E 103°55'0 0.0
2017-Dec-15 15:30N 01°15' E 103°55'0 0.1
2017-Dec-15 15:00N 01°15' E 103°55'1 1.4
2017-Dec-15 14:30N 01°14' E 103°55'3 5.9
2017-Dec-15 13:59N 01°16' E 103°58'2 3.5
2017-Dec-15 13:29N 01°16' E 103°60'3 6.3
2017-Dec-15 12:59N 01°16' E 104°03'3 6.8
2017-Dec-15 12:30N 01°17' E 104°06'5 7.0
2017-Dec-15 11:51N 01°17' E 104°10'4 8.7
2017-Dec-15 11:24N 01°18' E 104°14'  
2017-Dec-06 21:09N 01°14' E 104°05'211.5
2017-Dec-06 20:56N 01°14' E 104°02'  

Dump ship's entire track history